Time;durP1;ratioP1;P1;durP2;ratioP2;P2;SDS_P1;SDS_P2;PMS_P1;PMS_P2;Temp;Humidity;BMP_temperature;BMP_pressure;BME280_temperature;BME280_humidity;BME280_pressure;Samples;Min_cycle;Max_cycle;Signal;HPM_P1;HPM_P2
2022/08/27 00:01:56;;;;;;;9.55;9.15;;;;;;;22.10;100.00;100125.75;5053699;28;20025;-66
2022/08/27 00:04:22;;;;;;;10.07;9.65;;;;;;;21.87;100.00;100116.13;5053017;28;20033;-66
2022/08/27 00:06:47;;;;;;;9.52;9.13;;;;;;;21.86;100.00;100128.81;5053589;28;20027;-66
2022/08/27 00:09:13;;;;;;;9.70;9.30;;;;;;;21.88;100.00;100123.97;5053497;28;20025;-66
2022/08/27 00:11:39;;;;;;;9.65;9.25;;;;;;;21.99;100.00;100124.88;5053409;28;20107;-66
2022/08/27 00:14:04;;;;;;;9.70;9.30;;;;;;;21.94;100.00;100127.53;5051449;28;20028;-66
2022/08/27 00:16:31;;;;;;;9.63;9.23;;;;;;;21.95;100.00;100126.44;5042953;28;20033;-66
2022/08/27 00:18:56;;;;;;;9.35;8.95;;;;;;;22.01;100.00;100128.13;5061239;28;20024;-67
2022/08/27 00:21:23;;;;;;;9.57;9.18;;;;;;;22.03;100.00;100129.50;5052811;28;20370;-66
2022/08/27 00:23:49;;;;;;;9.93;9.52;;;;;;;22.02;100.00;100129.75;5053077;28;20480;-66
2022/08/27 00:26:15;;;;;;;9.40;9.00;;;;;;;22.01;100.00;100130.81;5053361;28;20108;-66
2022/08/27 00:28:41;;;;;;;9.18;8.77;;;;;;;22.05;100.00;100124.66;5052673;28;20025;-66
2022/08/27 00:31:07;;;;;;;9.50;9.10;;;;;;;22.45;100.00;100122.47;5053984;28;20036;-66
2022/08/27 00:33:33;;;;;;;9.43;9.02;;;;;;;22.60;100.00;100125.22;5064136;28;20388;-67
2022/08/27 00:35:59;;;;;;;9.18;8.77;;;;;;;22.64;100.00;100130.94;5052600;28;20104;-66
2022/08/27 00:38:25;;;;;;;9.50;9.10;;;;;;;22.56;100.00;100122.25;5052291;28;20103;-67
2022/08/27 00:40:52;;;;;;;9.30;8.90;;;;;;;22.59;100.00;100131.72;5061653;28;20041;-66
2022/08/27 00:43:26;;;;;;;9.68;9.27;;;;;;;22.58;100.00;100138.22;5057148;28;20029;-66
2022/08/27 00:45:57;;;;;;;9.73;9.32;;;;;;;22.46;100.00;100133.00;5052544;28;20057;-66
2022/08/27 00:48:26;;;;;;;9.50;9.10;;;;;;;22.44;100.00;100137.06;5054300;28;20052;-66
2022/08/27 00:50:54;;;;;;;9.80;9.40;;;;;;;22.36;100.00;100134.84;5063117;28;20064;-65
2022/08/27 00:53:24;;;;;;;9.50;9.10;;;;;;;22.16;100.00;100136.34;5052563;28;20024;-66
2022/08/27 00:55:55;;;;;;;9.50;9.10;;;;;;;22.16;100.00;100138.25;5052172;28;20077;-66
2022/08/27 00:58:31;;;;;;;9.73;9.32;;;;;;;22.09;100.00;100141.16;5053496;28;20515;-66
2022/08/27 01:00:58;;;;;;;9.60;9.20;;;;;;;22.14;100.00;100143.91;5045601;28;20036;-66
2022/08/27 01:03:25;;;;;;;9.55;9.15;;;;;;;22.15;100.00;100142.81;5055275;28;20025;-66
2022/08/27 01:05:53;;;;;;;9.50;9.10;;;;;;;22.21;100.00;100143.69;5057813;28;20029;-65
2022/08/27 01:08:36;;;;;;;9.57;9.18;;;;;;;22.22;100.00;100139.91;5052065;28;20040;-66
2022/08/27 01:11:03;;;;;;;9.68;9.27;;;;;;;22.28;100.00;100138.88;5052263;28;20055;-65
2022/08/27 01:13:31;;;;;;;9.43;9.02;;;;;;;22.18;100.00;100145.03;5051672;28;20025;-66
2022/08/27 01:15:58;;;;;;;9.35;8.95;;;;;;;22.25;100.00;100134.78;5055071;28;20571;-66
2022/08/27 01:18:26;;;;;;;9.45;9.05;;;;;;;22.13;100.00;100147.69;5052178;28;20485;-65
2022/08/27 01:20:54;;;;;;;9.60;9.20;;;;;;;22.05;100.00;100142.75;5064478;28;20100;-66
2022/08/27 01:23:29;;;;;;;9.65;9.25;;;;;;;22.02;100.00;100148.66;5067593;28;20060;-66
2022/08/27 01:25:56;;;;;;;9.40;9.00;;;;;;;21.94;100.00;100149.13;5038971;28;20029;-66
2022/08/27 01:28:22;;;;;;;9.45;9.05;;;;;;;21.89;100.00;100146.41;5052013;28;20029;-66
2022/08/27 01:30:47;;;;;;;9.70;9.30;;;;;;;22.04;100.00;100150.03;5050697;28;20499;-67
2022/08/27 01:33:17;;;;;;;9.50;9.10;;;;;;;22.10;100.00;100148.19;5061749;28;20032;-66
2022/08/27 01:35:45;;;;;;;9.18;8.77;;;;;;;22.06;100.00;100153.28;5061673;28;20032;-65
2022/08/27 01:38:12;;;;;;;9.65;9.25;;;;;;;21.90;100.00;100142.63;5051827;28;20025;-65
2022/08/27 01:40:38;;;;;;;9.50;9.10;;;;;;;21.73;100.00;100150.84;5051175;28;20025;-66
2022/08/27 01:43:04;;;;;;;9.77;9.38;;;;;;;21.50;100.00;100152.81;5052259;28;20035;-66
2022/08/27 01:45:33;;;;;;;9.80;9.40;;;;;;;21.52;100.00;100144.47;5043134;28;20029;-65
2022/08/27 01:47:59;;;;;;;9.43;9.02;;;;;;;21.45;100.00;100147.38;5051413;28;20138;-66
2022/08/27 01:50:34;;;;;;;9.57;9.18;;;;;;;21.51;100.00;100146.34;5051831;28;20382;-66
2022/08/27 01:53:03;;;;;;;9.55;9.15;;;;;;;21.57;100.00;100155.31;5056725;28;20025;-66
2022/08/27 01:55:29;;;;;;;9.63;9.23;;;;;;;21.43;100.00;100146.00;5047617;28;20028;-65
2022/08/27 01:57:54;;;;;;;9.80;9.40;;;;;;;21.17;100.00;100150.31;5051397;28;20021;-65
2022/08/27 02:00:27;;;;;;;9.73;9.32;;;;;;;21.16;100.00;100140.59;5051222;28;20021;-65
2022/08/27 02:02:53;;;;;;;9.52;9.13;;;;;;;21.12;100.00;100152.94;5051507;28;20052;-65
2022/08/27 02:05:19;;;;;;;9.55;9.15;;;;;;;21.22;100.00;100155.72;5056117;28;20540;-66
2022/08/27 02:07:45;;;;;;;9.68;9.27;;;;;;;21.16;100.00;100152.19;5054983;28;20033;-66
2022/08/27 02:10:14;;;;;;;9.27;8.88;;;;;;;21.17;100.00;100153.81;5051731;28;20028;-65
2022/08/27 02:12:40;;;;;;;9.63;9.23;;;;;;;21.04;100.00;100151.50;5051265;28;20066;-66
2022/08/27 02:15:06;;;;;;;9.50;9.10;;;;;;;21.01;100.00;100157.41;5051462;28;20024;-66
2022/08/27 02:17:33;;;;;;;9.60;9.20;;;;;;;21.06;100.00;100154.75;5051371;28;20028;-66
2022/08/27 02:19:59;;;;;;;9.45;9.05;;;;;;;21.00;100.00;100157.66;5051058;28;20036;-66
2022/08/27 02:22:25;;;;;;;9.40;9.00;;;;;;;21.00;100.00;100160.34;5057243;28;20028;-66
2022/08/27 02:24:51;;;;;;;9.65;9.25;;;;;;;20.94;100.00;100159.50;5052508;28;20037;-66
2022/08/27 02:27:17;;;;;;;9.40;9.00;;;;;;;20.92;100.00;100165.13;5051418;28;20036;-66
2022/08/27 02:29:42;;;;;;;9.60;9.20;;;;;;;20.94;100.00;100162.19;5049866;28;20108;-66
2022/08/27 02:32:08;;;;;;;9.35;8.95;;;;;;;20.86;100.00;100165.31;5051382;28;20120;-66
2022/08/27 02:34:33;;;;;;;9.50;9.10;;;;;;;20.86;100.00;100170.72;5051049;28;20032;-66
2022/08/27 02:36:59;;;;;;;9.77;9.38;;;;;;;20.83;100.00;100173.91;5050755;28;20048;-66
2022/08/27 02:39:25;;;;;;;9.48;9.07;;;;;;;20.68;100.00;100182.59;5050895;28;20025;-66
2022/08/27 02:41:50;;;;;;;10.02;9.60;;;;;;;20.76;100.00;100182.16;5051299;28;20116;-66
2022/08/27 02:44:16;;;;;;;9.57;9.18;;;;;;;20.78;100.00;100177.34;5051121;28;20108;-66
2022/08/27 02:46:41;;;;;;;9.50;9.10;;;;;;;20.69;100.00;100178.84;5050918;28;20049;-65
2022/08/27 02:49:08;;;;;;;9.88;9.48;;;;;;;20.65;100.00;100167.75;5050965;28;20044;-66
2022/08/27 02:51:34;;;;;;;9.48;9.07;;;;;;;20.62;100.00;100170.94;5052933;28;20052;-66
2022/08/27 02:54:01;;;;;;;9.73;9.32;;;;;;;20.65;100.00;100175.84;5062808;28;20040;-66
2022/08/27 02:56:26;;;;;;;9.90;9.50;;;;;;;20.50;100.00;100174.84;5054448;28;20029;-66
2022/08/27 02:58:52;;;;;;;9.60;9.20;;;;;;;20.52;100.00;100170.81;5043898;28;20032;-67
2022/08/27 03:01:18;;;;;;;9.65;9.20;;;;;;;20.58;100.00;100174.41;5052194;28;20029;-66
2022/08/27 03:03:43;;;;;;;9.70;9.30;;;;;;;20.43;100.00;100175.78;5054277;28;20454;-66
2022/08/27 03:06:09;;;;;;;9.80;9.40;;;;;;;20.34;100.00;100169.16;5054573;28;20017;-66
2022/08/27 03:08:34;;;;;;;9.80;9.40;;;;;;;20.32;100.00;100175.88;5054556;28;20024;-67
2022/08/27 03:11:00;;;;;;;9.65;9.25;;;;;;;20.29;100.00;100177.19;5053738;28;20395;-66
2022/08/27 03:13:26;;;;;;;9.60;9.20;;;;;;;20.30;100.00;100165.34;5054446;28;20139;-66
2022/08/27 03:15:52;;;;;;;9.90;9.40;;;;;;;20.33;100.00;100166.72;5054402;28;20492;-66
2022/08/27 03:18:20;;;;;;;9.40;9.00;;;;;;;20.27;100.00;100173.09;5054722;28;20523;-66
2022/08/27 03:20:49;;;;;;;9.70;9.30;;;;;;;20.21;100.00;100174.09;5054372;28;20031;-66
2022/08/27 03:23:15;;;;;;;9.80;9.40;;;;;;;20.25;100.00;100177.94;5053234;28;20052;-67
2022/08/27 03:25:50;;;;;;;9.75;9.35;;;;;;;20.23;100.00;100171.97;5054219;28;20044;-66
2022/08/27 03:28:17;;;;;;;9.88;9.40;;;;;;;20.20;100.00;100170.59;5040709;28;20383;-66
2022/08/27 03:30:51;;;;;;;9.50;9.10;;;;;;;20.21;100.00;100179.50;5053602;28;20025;-66
2022/08/27 03:33:18;;;;;;;9.40;9.00;;;;;;;20.19;100.00;100178.91;5054810;28;20053;-66
2022/08/27 03:35:45;;;;;;;9.68;9.27;;;;;;;20.13;100.00;100173.47;5053993;28;20316;-66
2022/08/27 03:38:11;;;;;;;10.30;9.80;;;;;;;20.13;100.00;100168.06;5052803;28;20079;-66
2022/08/27 03:40:36;;;;;;;9.70;9.30;;;;;;;20.06;100.00;100163.91;5054058;28;20481;-66
2022/08/27 03:43:03;;;;;;;9.50;9.10;;;;;;;20.11;100.00;100172.06;5052818;28;20033;-66
2022/08/27 03:45:28;;;;;;;9.60;9.20;;;;;;;20.13;100.00;100172.66;5053425;28;20017;-65
2022/08/27 03:47:54;;;;;;;9.70;9.30;;;;;;;20.24;100.00;100177.13;5060133;28;20055;-66
2022/08/27 03:50:20;;;;;;;9.40;9.00;;;;;;;20.12;100.00;100179.91;5053644;28;20099;-65
2022/08/27 03:52:45;;;;;;;10.18;9.70;;;;;;;20.08;100.00;100186.03;5053479;28;20434;-66
2022/08/27 03:55:12;;;;;;;9.65;9.25;;;;;;;20.03;100.00;100181.38;5053659;28;20021;-66
2022/08/27 03:57:37;;;;;;;9.45;9.05;;;;;;;20.10;100.00;100184.72;5053921;28;20086;-66
2022/08/27 04:00:07;;;;;;;9.60;9.20;;;;;;;20.11;100.00;100182.84;5053234;28;20477;-66
2022/08/27 04:02:32;;;;;;;9.52;9.13;;;;;;;20.17;100.00;100183.72;5052445;28;20028;-66
2022/08/27 04:04:58;;;;;;;9.65;9.25;;;;;;;20.31;100.00;100182.34;5050930;28;20534;-66
2022/08/27 04:07:24;;;;;;;9.52;9.13;;;;;;;20.44;100.00;100184.72;5053662;28;20020;-66
2022/08/27 04:09:49;;;;;;;9.52;9.13;;;;;;;20.34;100.00;100185.34;5053401;28;20021;-66
2022/08/27 04:12:15;;;;;;;9.50;9.10;;;;;;;20.34;100.00;100184.53;5053116;28;20388;-66
2022/08/27 04:14:40;;;;;;;9.45;9.05;;;;;;;20.51;100.00;100184.53;5035471;28;20086;-65
2022/08/27 04:17:06;;;;;;;9.45;9.05;;;;;;;20.49;100.00;100187.50;5053462;28;20104;-65
2022/08/27 04:19:32;;;;;;;9.57;9.18;;;;;;;20.55;100.00;100186.47;5053009;28;20029;-66
2022/08/27 04:22:04;;;;;;;9.88;9.48;;;;;;;20.62;100.00;100189.81;5053065;28;20075;-66
2022/08/27 04:24:31;;;;;;;9.57;9.18;;;;;;;20.57;100.00;100184.38;5053060;28;20503;-66
2022/08/27 04:26:57;;;;;;;9.20;8.80;;;;;;;20.67;100.00;100184.50;5055159;28;20032;-65
2022/08/27 04:29:23;;;;;;;9.75;9.35;;;;;;;20.67;100.00;100184.50;5061474;28;20546;-65
2022/08/27 04:31:48;;;;;;;9.60;9.20;;;;;;;20.81;100.00;100194.91;5052742;28;20032;-66
2022/08/27 04:34:15;;;;;;;9.52;9.13;;;;;;;20.95;100.00;100202.38;5068041;28;20025;-66
2022/08/27 04:36:41;;;;;;;9.77;9.38;;;;;;;20.80;100.00;100204.06;5052508;28;20027;-65
2022/08/27 04:39:06;;;;;;;9.63;9.23;;;;;;;20.74;100.00;100205.06;5052735;28;20033;-66
2022/08/27 04:41:32;;;;;;;9.50;9.10;;;;;;;20.62;100.00;100203.28;5051975;28;20045;-66
2022/08/27 04:44:06;;;;;;;9.70;9.30;;;;;;;20.66;100.00;100199.03;5052742;28;20036;-66
2022/08/27 04:46:35;;;;;;;9.50;9.10;;;;;;;21.18;100.00;100195.91;5052606;28;20047;-65
2022/08/27 04:49:05;;;;;;;9.88;9.48;;;;;;;21.82;100.00;100195.22;5052972;28;20024;-65
2022/08/27 04:51:32;;;;;;;9.73;9.32;;;;;;;22.18;100.00;100188.25;5053066;28;20021;-65
2022/08/27 04:53:57;;;;;;;9.77;9.38;;;;;;;22.55;100.00;100192.81;5052319;28;20110;-66
2022/08/27 04:56:24;;;;;;;9.80;9.40;;;;;;;22.73;100.00;100186.94;5055338;28;20492;-65
2022/08/27 04:58:50;;;;;;;10.07;9.68;;;;;;;23.27;100.00;100192.03;5052312;28;20040;-65
2022/08/27 05:01:27;;;;;;;9.65;9.25;;;;;;;23.37;100.00;100194.78;5052324;28;20032;-65
2022/08/27 05:03:53;;;;;;;10.18;9.77;;;;;;;23.01;100.00;100193.06;5052182;28;20032;-66
2022/08/27 05:06:19;;;;;;;9.60;9.20;;;;;;;23.00;100.00;100196.84;5052093;28;20546;-65
2022/08/27 05:08:47;;;;;;;9.90;9.50;;;;;;;22.52;100.00;100190.63;5052146;28;20052;-66
2022/08/27 05:11:14;;;;;;;9.50;9.10;;;;;;;22.49;100.00;100191.16;5052124;28;20061;-66
2022/08/27 05:13:44;;;;;;;9.63;9.23;;;;;;;22.42;100.00;100187.88;5052624;28;20052;-66
2022/08/27 05:16:12;;;;;;;9.65;9.25;;;;;;;22.44;100.00;100189.22;5051557;28;20102;-66
2022/08/27 05:18:41;;;;;;;9.80;9.40;;;;;;;22.62;100.00;100187.97;5050782;28;20067;-66
2022/08/27 05:21:07;;;;;;;9.80;9.40;;;;;;;22.66;100.00;100186.38;5052064;28;20111;-66
2022/08/27 05:23:34;;;;;;;9.63;9.23;;;;;;;22.59;100.00;100183.09;5051819;28;20025;-66
2022/08/27 05:25:59;;;;;;;9.38;8.98;;;;;;;22.51;100.00;100189.00;5051973;28;20037;-66
2022/08/27 05:28:27;;;;;;;9.73;9.32;;;;;;;22.84;100.00;100194.03;5051167;28;20082;-67
2022/08/27 05:31:01;;;;;;;9.50;9.10;;;;;;;23.04;100.00;100187.91;5052067;28;20037;-66
2022/08/27 05:33:27;;;;;;;9.85;9.45;;;;;;;23.02;100.00;100194.69;5051832;28;20062;-66
2022/08/27 05:35:55;;;;;;;9.73;9.32;;;;;;;23.35;100.00;100196.13;5051719;28;20108;-66
2022/08/27 05:38:23;;;;;;;10.73;10.23;;;;;;;23.50;100.00;100211.56;5049067;28;20082;-66
2022/08/27 05:40:49;;;;;;;9.85;9.45;;;;;;;23.60;100.00;100198.91;5042056;28;20036;-66
2022/08/27 05:43:17;;;;;;;9.63;9.23;;;;;;;23.86;100.00;100207.06;5062446;28;20029;-66
2022/08/27 05:45:45;;;;;;;9.80;9.40;;;;;;;23.58;100.00;100203.78;5051170;28;20036;-65
2022/08/27 05:48:14;;;;;;;9.50;9.10;;;;;;;23.63;100.00;100208.38;5056483;28;20025;-65
2022/08/27 05:50:42;;;;;;;9.88;9.48;;;;;;;24.15;100.00;100207.31;5051513;28;20420;-65
2022/08/27 05:53:08;;;;;;;9.80;9.40;;;;;;;24.41;100.00;100208.97;5051551;28;20039;-66
2022/08/27 05:55:42;;;;;;;9.52;9.13;;;;;;;25.43;100.00;100216.75;5051334;28;20021;-67
2022/08/27 06:01:03;;;;;;;9.80;9.40;;;;;;;26.12;100.00;100218.44;5053726;28;20519;-66
2022/08/27 06:01:03;;;;;;;9.68;9.27;;;;;;;26.25;100.00;100218.88;5050503;28;20048;-66
2022/08/27 06:03:29;;;;;;;10.13;9.73;;;;;;;27.62;99.09;100219.19;5057504;28;20201;-66
2022/08/27 06:06:06;;;;;;;9.77;9.38;;;;;;;29.49;85.93;100216.00;5053089;28;20090;-67
2022/08/27 06:08:32;;;;;;;9.75;9.35;;;;;;;27.31;92.11;100216.06;5055710;28;20033;-66
2022/08/27 06:11:03;;;;;;;9.80;9.40;;;;;;;27.65;92.52;100210.41;5051589;28;20021;-67
2022/08/27 06:13:29;;;;;;;9.70;9.30;;;;;;;27.43;92.12;100206.38;5050001;28;20025;-65
2022/08/27 06:16:21;;;;;;;9.90;9.50;;;;;;;29.30;84.58;100213.41;5051378;28;20021;-65
2022/08/27 06:18:48;;;;;;;9.85;9.45;;;;;;;30.21;77.58;100222.22;5044256;28;20044;-65
2022/08/27 06:21:15;;;;;;;9.80;9.40;;;;;;;29.23;83.14;100226.69;5051348;28;20520;-65
2022/08/27 06:23:41;;;;;;;9.85;9.45;;;;;;;29.91;80.49;100220.22;5049725;28;20059;-66
2022/08/27 06:26:09;;;;;;;9.90;9.50;;;;;;;29.96;80.55;100225.56;5043396;28;20446;-67
2022/08/27 06:28:35;;;;;;;9.70;9.30;;;;;;;31.42;71.59;100223.78;5052315;28;20033;-66
2022/08/27 06:31:12;;;;;;;10.25;9.85;;;;;;;32.25;67.33;100218.91;5053782;28;20082;-66
2022/08/27 06:33:39;;;;;;;10.07;9.68;;;;;;;32.60;63.99;100227.03;5052399;28;20571;-66
2022/08/27 06:36:08;;;;;;;10.10;9.70;;;;;;;32.63;63.51;100223.66;5053441;28;20029;-66
2022/08/27 06:38:34;;;;;;;10.05;9.65;;;;;;;31.30;68.84;100218.97;5053299;28;20079;-66
2022/08/27 06:41:03;;;;;;;9.70;9.30;;;;;;;30.79;71.05;100223.16;5054619;28;20506;-64
2022/08/27 06:43:29;;;;;;;9.90;9.50;;;;;;;30.41;72.64;100231.84;5057179;28;20037;-65
2022/08/27 06:45:54;;;;;;;9.93;9.52;;;;;;;30.41;72.52;100223.63;5053359;28;20025;-65
2022/08/27 06:48:20;;;;;;;9.77;9.38;;;;;;;29.53;77.03;100220.59;5051848;28;20036;-65
2022/08/27 06:50:46;;;;;;;10.23;9.82;;;;;;;30.43;72.92;100226.84;5053561;28;20017;-65
2022/08/27 06:53:12;;;;;;;10.18;9.77;;;;;;;32.35;63.92;100226.00;5053207;28;20025;-65
2022/08/27 06:55:47;;;;;;;10.00;9.60;;;;;;;32.80;60.65;100222.75;5051858;28;20091;-65
2022/08/27 06:58:14;;;;;;;9.85;9.45;;;;;;;34.29;55.45;100231.16;5053511;28;20025;-67
2022/08/27 07:00:41;;;;;;;9.77;9.38;;;;;;;33.45;56.32;100224.19;5051466;28;20021;-68
2022/08/27 07:03:06;;;;;;;9.75;9.35;;;;;;;31.80;62.86;100221.22;5052301;28;20143;-66
2022/08/27 07:05:34;;;;;;;9.85;9.45;;;;;;;31.77;64.23;100228.19;5052544;28;20116;-66
2022/08/27 07:08:00;;;;;;;9.88;9.48;;;;;;;31.21;65.35;100229.03;5053421;28;20029;-66
2022/08/27 07:10:26;;;;;;;10.43;9.93;;;;;;;30.66;67.81;100246.78;5050011;28;20086;-71
2022/08/27 07:12:52;;;;;;;9.80;9.40;;;;;;;30.44;69.39;100233.94;5052524;28;20036;-66
2022/08/27 07:15:18;;;;;;;10.07;9.68;;;;;;;31.97;62.96;100239.63;5052322;28;20037;-66
2022/08/27 07:17:43;;;;;;;10.15;9.75;;;;;;;33.27;57.13;100237.19;5052650;28;20021;-66
2022/08/27 07:20:15;;;;;;;10.25;9.85;;;;;;;34.03;53.41;100233.41;5051562;28;20039;-68
2022/08/27 07:22:42;;;;;;;9.90;9.50;;;;;;;34.82;49.20;100240.44;5051809;28;20033;-65
2022/08/27 07:25:11;;;;;;;10.00;9.60;;;;;;;35.00;48.85;100238.28;5052129;28;20048;-66
2022/08/27 07:27:38;;;;;;;10.07;9.68;;;;;;;35.53;45.98;100238.31;5054108;28;20056;-67
2022/08/27 07:30:05;;;;;;;10.18;9.77;;;;;;;34.61;47.20;100221.25;5051707;28;20075;-66
2022/08/27 07:32:31;;;;;;;10.13;9.73;;;;;;;36.52;43.50;100223.72;5049038;28;20123;-66
2022/08/27 07:34:56;;;;;;;9.93;9.52;;;;;;;36.51;42.67;100222.09;5051122;28;20066;-67
2022/08/27 07:37:22;;;;;;;10.10;9.70;;;;;;;36.03;43.84;100220.41;5052143;28;20039;-67
2022/08/27 07:39:47;;;;;;;9.98;9.57;;;;;;;36.05;43.53;100215.34;5060813;28;20040;-66
2022/08/27 07:44:57;;;;;;;9.80;9.40;;;;;;;35.17;44.52;100226.97;5051634;28;20066;-65
2022/08/27 07:47:23;;;;;;;9.70;9.30;;;;;;;34.11;46.57;100218.75;5052371;28;20057;-66
2022/08/27 07:49:49;;;;;;;10.02;9.63;;;;;;;33.52;49.31;100216.19;5051402;28;20024;-66
2022/08/27 07:52:15;;;;;;;10.10;9.70;;;;;;;32.65;51.31;100211.19;5052061;28;20506;-66
2022/08/27 07:54:41;;;;;;;9.73;9.32;;;;;;;33.48;49.99;100207.78;5049862;28;20419;-65
2022/08/27 07:57:07;;;;;;;9.80;9.40;;;;;;;33.61;50.54;100211.41;5052153;28;20032;-65
2022/08/27 07:59:33;;;;;;;10.10;9.70;;;;;;;33.61;49.64;100205.13;5048537;28;20037;-66
2022/08/27 08:01:59;;;;;;;10.02;9.63;;;;;;;34.23;48.13;100205.00;5050782;28;20116;-66
2022/08/27 08:04:25;;;;;;;9.95;9.55;;;;;;;33.84;49.16;100203.59;5052686;28;20116;-65
2022/08/27 08:06:51;;;;;;;10.10;9.70;;;;;;;33.73;48.43;100210.69;5054601;28;20028;-67
2022/08/27 08:09:16;;;;;;;10.30;9.90;;;;;;;33.17;50.60;100202.66;5045550;28;20501;-65
2022/08/27 08:11:42;;;;;;;10.05;9.65;;;;;;;32.26;54.06;100200.50;5043607;28;20485;-66
2022/08/27 08:14:07;;;;;;;10.00;9.60;;;;;;;32.65;55.00;100197.44;5047896;28;20075;-65
2022/08/27 08:16:33;;;;;;;10.00;9.60;;;;;;;32.55;54.10;100202.53;5047802;28;20123;-65
2022/08/27 08:19:01;;;;;;;10.55;10.05;;;;;;;33.41;51.76;100206.72;5047322;28;20037;-64
2022/08/27 08:21:27;;;;;;;10.15;9.75;;;;;;;33.14;52.34;100202.53;5051707;28;20108;-64
2022/08/27 08:23:52;;;;;;;10.20;9.77;;;;;;;32.47;53.91;100208.84;5041672;28;20028;-65
2022/08/27 08:26:18;;;;;;;10.45;9.95;;;;;;;32.98;53.42;100205.06;5049175;28;20891;-65
2022/08/27 08:28:44;;;;;;;10.18;9.77;;;;;;;33.83;52.63;100209.44;5055407;28;20029;-65
2022/08/27 08:31:10;;;;;;;10.20;9.80;;;;;;;32.69;54.10;100203.91;5048975;28;20021;-65
2022/08/27 08:33:36;;;;;;;10.05;9.65;;;;;;;32.72;56.86;100208.72;5048619;28;20025;-66
2022/08/27 08:36:19;;;;;;;10.40;9.95;;;;;;;32.57;56.33;100200.25;5049215;28;20021;-66
2022/08/27 08:38:46;;;;;;;10.18;9.77;;;;;;;32.67;57.34;100195.16;5048854;28;20064;-65
2022/08/27 08:41:27;;;;;;;10.07;9.68;;;;;;;34.10;52.25;100205.31;5049360;28;20033;-66
2022/08/27 08:43:54;;;;;;;10.02;9.63;;;;;;;34.26;50.36;100203.50;5059063;28;20063;-65
2022/08/27 08:46:38;;;;;;;10.13;9.73;;;;;;;34.97;46.42;100208.66;5051207;28;20053;-66
2022/08/27 08:49:25;;;;;;;10.23;9.82;;;;;;;33.49;53.29;100197.59;5048224;28;20090;-64
2022/08/27 08:51:54;;;;;;;10.52;10.02;;;;;;;34.74;48.69;100200.03;5048150;28;20028;-65
2022/08/27 08:54:22;;;;;;;10.60;10.10;;;;;;;34.06;50.00;100197.72;5047978;28;20029;-65
2022/08/27 08:57:00;;;;;;;10.48;9.98;;;;;;;34.49;47.30;100195.66;5048603;28;20035;-66
2022/08/27 08:59:35;;;;;;;10.10;9.70;;;;;;;34.48;41.58;100197.59;5048573;28;20547;-66
2022/08/27 09:02:01;;;;;;;10.40;9.90;;;;;;;36.01;39.46;100195.94;5048515;28;20103;-64
2022/08/27 09:04:28;;;;;;;10.50;10.00;;;;;;;35.25;38.89;100200.41;5048556;28;20512;-65
2022/08/27 09:07:08;;;;;;;10.10;9.70;;;;;;;36.06;37.71;100192.88;5048044;28;20028;-65
2022/08/27 09:09:41;;;;;;;10.18;9.77;;;;;;;35.12;38.13;100191.41;5048095;28;20485;-64
2022/08/27 09:12:23;;;;;;;10.10;9.70;;;;;;;35.07;38.51;100210.94;5055303;28;20065;-65
2022/08/27 09:15:01;;;;;;;10.10;9.70;;;;;;;34.72;38.42;100207.81;5050659;28;20415;-66
2022/08/27 09:17:27;;;;;;;10.10;9.70;;;;;;;33.87;39.91;100199.38;5051750;28;20024;-66
2022/08/27 09:19:52;;;;;;;9.88;9.48;;;;;;;34.19;40.06;100206.81;5049859;28;20135;-66
2022/08/27 09:22:54;;;;;;;10.00;9.60;;;;;;;33.47;41.23;100203.44;5049260;28;20603;-66
2022/08/27 09:25:25;;;;;;;10.10;9.70;;;;;;;33.90;40.92;100207.78;5043604;28;20067;-66
2022/08/27 09:27:56;;;;;;;9.90;9.50;;;;;;;33.84;40.96;100205.53;5049009;28;20037;-67
2022/08/27 09:30:29;;;;;;;9.68;9.27;;;;;;;33.24;42.44;100202.94;5051142;28;20110;-68
2022/08/27 09:32:56;;;;;;;9.60;9.20;;;;;;;33.39;42.21;100209.00;5050370;28;20033;-66
2022/08/27 09:35:25;;;;;;;10.00;9.60;;;;;;;33.11;42.87;100200.44;5050525;28;20043;-66
2022/08/27 09:37:54;;;;;;;9.75;9.35;;;;;;;33.16;42.96;100206.56;5050313;28;20488;-67
2022/08/27 09:40:30;;;;;;;9.82;9.43;;;;;;;33.52;42.20;100206.00;5055646;28;20076;-66
2022/08/27 09:43:27;;;;;;;9.77;9.38;;;;;;;33.91;42.08;100208.56;5047856;28;20089;-66
2022/08/27 09:45:59;;;;;;;9.70;9.30;;;;;;;33.42;42.25;100209.16;5048944;28;20139;-69
2022/08/27 09:48:30;;;;;;;9.40;9.00;;;;;;;34.07;41.45;100204.84;5049569;28;20150;-68
2022/08/27 09:51:01;;;;;;;9.85;9.45;;;;;;;34.23;40.71;100204.22;5049659;28;20040;-69
2022/08/27 09:53:36;;;;;;;10.60;10.10;;;;;;;33.16;42.85;100194.75;5048184;28;20035;-69
2022/08/27 09:56:07;;;;;;;9.70;9.30;;;;;;;33.36;41.49;100207.72;5057296;28;20043;-68
2022/08/27 09:58:48;;;;;;;10.00;9.60;;;;;;;33.66;40.94;100204.91;5049915;28;20041;-68
2022/08/27 10:01:24;;;;;;;9.63;9.23;;;;;;;33.53;41.61;100204.84;5053269;28;20576;-69
2022/08/27 10:04:01;;;;;;;9.63;9.23;;;;;;;33.53;41.56;100199.34;5052671;28;20383;-67
2022/08/27 10:06:30;;;;;;;9.68;9.27;;;;;;;33.90;40.46;100204.22;5039553;28;20048;-68
2022/08/27 10:09:02;;;;;;;9.70;9.30;;;;;;;33.81;41.04;100196.84;5051306;28;20125;-68
2022/08/27 10:11:33;;;;;;;10.10;9.70;;;;;;;33.71;41.29;100199.19;5049395;28;20203;-64
2022/08/27 10:14:12;;;;;;;9.95;9.55;;;;;;;33.52;41.21;100206.00;5043536;28;20029;-67
2022/08/27 10:17:06;;;;;;;9.93;9.52;;;;;;;33.28;41.43;100196.78;5039538;28;20124;-65
2022/08/27 10:20:07;;;;;;;10.03;9.63;;;;;;;33.49;41.68;100197.59;5047751;28;20107;-66
2022/08/27 10:22:58;;;;;;;10.15;9.75;;;;;;;32.73;43.17;100195.78;5024774;28;20290;-67
2022/08/27 10:25:59;;;;;;;10.23;9.82;;;;;;;33.25;42.86;100201.78;5035636;28;20090;-67
2022/08/27 10:28:25;;;;;;;10.32;9.88;;;;;;;34.01;41.24;100197.16;5039540;28;20044;-66
2022/08/27 10:31:21;;;;;;;10.50;10.00;;;;;;;33.58;42.00;100198.34;5046852;28;20391;-65
2022/08/27 10:33:55;;;;;;;10.13;9.73;;;;;;;32.94;42.86;100198.63;5048928;28;20610;-67
2022/08/27 10:36:39;;;;;;;10.00;9.60;;;;;;;32.47;43.16;100193.19;5046137;28;20041;-66
2022/08/27 10:39:23;;;;;;;9.98;9.50;;;;;;;32.59;43.30;100190.53;5049964;28;20033;-68
2022/08/27 10:42:00;;;;;;;10.00;9.60;;;;;;;32.55;43.02;100197.03;5053542;28;20354;-65
2022/08/27 10:45:14;;;;;;;10.10;9.70;;;;;;;32.20;42.92;100196.31;5047049;28;20560;-68
2022/08/27 10:47:56;;;;;;;10.30;9.90;;;;;;;32.57;41.79;100192.00;4999631;28;20053;-68
2022/08/27 10:50:36;;;;;;;10.35;9.90;;;;;;;32.23;43.71;100201.94;5046191;28;20037;-67
2022/08/27 10:53:16;;;;;;;10.35;9.88;;;;;;;32.47;43.08;100203.38;5057682;28;20029;-67
2022/08/27 10:55:50;;;;;;;10.02;9.63;;;;;;;32.75;42.77;100200.94;5046688;28;20120;-68
2022/08/27 10:59:00;;;;;;;9.88;9.48;;;;;;;32.67;43.50;100197.13;5046787;28;20492;-67
2022/08/27 11:01:56;;;;;;;9.90;9.50;;;;;;;32.79;43.19;100196.41;5028090;28;20049;-68
2022/08/27 11:04:29;;;;;;;9.88;9.48;;;;;;;32.90;42.68;100183.94;5037917;28;20037;-67
2022/08/27 11:07:02;;;;;;;9.95;9.55;;;;;;;32.90;42.36;100186.66;5061898;28;20033;-65
2022/08/27 11:09:36;;;;;;;10.20;9.80;;;;;;;32.70;43.00;100191.78;5059002;28;20056;-66
2022/08/27 11:12:06;;;;;;;10.50;10.00;;;;;;;32.65;42.45;100186.47;5047644;28;20052;-64
2022/08/27 11:14:36;;;;;;;10.00;9.60;;;;;;;32.24;43.86;100194.50;5046390;28;20033;-63
2022/08/27 11:17:16;;;;;;;10.20;9.80;;;;;;;32.21;44.35;100185.00;5045469;28;20021;-65
2022/08/27 11:19:52;;;;;;;10.63;10.13;;;;;;;32.36;43.71;100187.25;5049122;28;20052;-65
2022/08/27 11:22:36;;;;;;;10.02;9.63;;;;;;;31.82;46.01;100188.81;5051481;28;20556;-65
2022/08/27 11:25:14;;;;;;;10.07;9.68;;;;;;;32.07;44.90;100185.19;5044869;28;20511;-66
2022/08/27 11:27:40;;;;;;;9.75;9.35;;;;;;;32.00;45.77;100184.91;5048228;28;20112;-68
2022/08/27 11:30:21;;;;;;;10.52;10.02;;;;;;;32.14;46.09;100187.44;5045444;28;20079;-68
2022/08/27 11:33:09;;;;;;;10.52;10.02;;;;;;;32.17;45.65;100186.78;5045211;28;20079;-66
2022/08/27 11:36:12;;;;;;;9.98;9.57;;;;;;;32.73;44.27;100188.34;5048966;28;20025;-69